createdAt,value
2022-08-03T00:01:26.124Z,2.60
2022-08-03T00:06:28.406Z,2.47
2022-08-03T00:11:30.241Z,2.20
2022-08-03T00:16:32.523Z,2.67
2022-08-03T00:21:34.510Z,2.22
2022-08-03T00:26:36.648Z,2.28
2022-08-03T00:31:45.004Z,2.50
2022-08-03T00:36:54.828Z,2.33
2022-08-03T00:41:56.666Z,2.40
2022-08-03T00:46:58.566Z,2.05
2022-08-03T00:52:09.573Z,2.10
2022-08-03T00:57:11.722Z,2.03
2022-08-03T01:02:13.979Z,2.80
2022-08-03T01:07:20.687Z,2.58
2022-08-03T01:12:33.346Z,2.10
2022-08-03T01:17:55.495Z,2.10
2022-08-03T01:23:16.157Z,2.67
2022-08-03T01:28:40.027Z,2.28
2022-08-03T01:33:47.708Z,3.08
2022-08-03T01:38:56.662Z,2.15
2022-08-03T01:44:30.279Z,2.10
2022-08-03T01:49:22.751Z,2.17
2022-08-03T01:54:25.430Z,2.53
2022-08-03T01:59:28.125Z,2.28
2022-08-03T02:04:30.927Z,2.25
2022-08-03T02:09:37.869Z,2.70
2022-08-03T02:14:41.319Z,2.47
2022-08-03T02:19:43.779Z,2.70
2022-08-03T02:24:45.782Z,3.08
2022-08-03T02:30:02.596Z,3.97
2022-08-03T02:35:06.897Z,2.75
2022-08-03T02:40:10.372Z,3.10
2022-08-03T02:45:15.788Z,3.03
2022-08-03T02:50:19.395Z,2.72
2022-08-03T02:55:23.028Z,2.95
2022-08-03T03:00:27.425Z,2.85
2022-08-03T03:05:55.413Z,2.50
2022-08-03T03:10:55.567Z,2.47
2022-08-03T03:16:01.590Z,3.13
2022-08-03T03:21:04.486Z,2.60
2022-08-03T03:26:06.955Z,3.25
2022-08-03T03:31:09.836Z,3.08
2022-08-03T03:36:11.659Z,3.08
2022-08-03T03:41:13.555Z,3.35
2022-08-03T03:46:15.648Z,3.05
2022-08-03T03:51:17.862Z,3.58
2022-08-03T03:56:19.968Z,3.50
2022-08-03T04:01:22.582Z,3.53
2022-08-03T04:06:43.456Z,3.90
2022-08-03T04:11:55.613Z,3.50
2022-08-03T04:17:00.171Z,4.00
2022-08-03T04:22:05.615Z,3.63
2022-08-03T04:27:10.124Z,3.63
2022-08-03T04:32:14.386Z,3.92
2022-08-03T04:37:25.575Z,3.83
2022-08-03T04:42:27.989Z,4.05
2022-08-03T04:47:32.853Z,4.22
2022-08-03T04:52:35.236Z,3.67
2022-08-03T05:02:39.839Z,3.85
2022-08-03T05:07:42.699Z,3.80
2022-08-03T05:12:46.161Z,3.85
2022-08-03T05:17:49.249Z,4.28
2022-08-03T05:22:51.053Z,4.50
2022-08-03T05:27:53.011Z,3.47
2022-08-03T05:32:54.907Z,3.85
2022-08-03T05:37:56.819Z,4.03
2022-08-03T05:42:59.226Z,3.53
2022-08-03T05:48:01.229Z,3.38
2022-08-03T05:53:03.236Z,3.38
2022-08-03T05:58:05.650Z,3.80
2022-08-03T06:03:07.503Z,4.00
2022-08-03T06:08:09.426Z,3.75
2022-08-03T06:13:17.458Z,3.80
2022-08-03T06:18:19.514Z,3.75
2022-08-03T06:23:21.384Z,4.40
2022-08-03T06:28:52.869Z,4.00
2022-08-03T06:34:22.907Z,3.47
2022-08-03T06:39:08.169Z,3.85
2022-08-03T06:44:10.464Z,3.88
2022-08-03T06:49:13.065Z,3.92
2022-08-03T06:54:14.987Z,3.75
2022-08-03T07:00:10.363Z,3.90
2022-08-03T07:04:38.976Z,4.25
2022-08-03T07:09:41.721Z,3.83
2022-08-03T07:19:45.729Z,4.00
2022-08-03T07:24:47.936Z,4.15
2022-08-03T07:29:49.917Z,3.75
2022-08-03T07:34:53.118Z,3.33
2022-08-03T07:39:58.310Z,3.30
2022-08-03T07:45:00.257Z,3.00
2022-08-03T07:50:02.237Z,3.40
2022-08-03T07:55:06.659Z,3.38
2022-08-03T08:00:18.261Z,3.70
2022-08-03T08:05:20.209Z,3.20
2022-08-03T08:10:22.192Z,3.80
2022-08-03T08:15:24.487Z,3.70
2022-08-03T08:20:32.140Z,3.30
2022-08-03T08:25:34.501Z,3.25
2022-08-03T08:30:36.708Z,3.25
2022-08-03T08:35:38.937Z,3.22
2022-08-03T08:40:40.977Z,3.20
2022-08-03T08:45:42.991Z,3.40
2022-08-03T08:55:58.492Z,3.63
2022-08-03T09:01:02.338Z,3.30
2022-08-03T09:06:04.632Z,3.15
2022-08-03T09:11:07.726Z,3.42
2022-08-03T09:16:20.084Z,2.65
2022-08-03T09:21:34.542Z,2.70
2022-08-03T09:26:37.698Z,3.15
2022-08-03T09:31:45.829Z,3.05
2022-08-03T09:36:51.645Z,3.22
2022-08-03T09:42:29.026Z,3.00
2022-08-03T09:47:44.943Z,2.88
2022-08-03T09:52:52.175Z,3.15
2022-08-03T09:58:05.267Z,2.90
2022-08-03T10:03:07.204Z,2.72
2022-08-03T10:08:15.950Z,2.88
2022-08-03T10:13:19.262Z,2.80
2022-08-03T10:18:21.119Z,2.75
2022-08-03T10:23:23.220Z,2.50
2022-08-03T10:28:25.320Z,3.10
2022-08-03T10:33:50.906Z,2.88
2022-08-03T10:38:55.279Z,2.80
2022-08-03T10:44:03.687Z,2.88
2022-08-03T10:49:06.563Z,3.30
2022-08-03T10:54:37.476Z,3.70
2022-08-03T10:59:45.510Z,3.30
2022-08-03T11:04:47.436Z,3.33
2022-08-03T11:09:56.430Z,3.33
2022-08-03T11:15:00.701Z,3.25
2022-08-03T11:20:05.678Z,3.20
2022-08-03T11:25:08.131Z,3.45
2022-08-03T11:30:30.349Z,3.13
2022-08-03T11:35:36.810Z,3.35
2022-08-03T11:40:42.294Z,3.55
2022-08-03T11:45:56.477Z,3.83
2022-08-03T11:50:58.511Z,3.90
2022-08-03T11:56:01.743Z,3.67
2022-08-03T12:01:05.275Z,3.72
2022-08-03T12:06:10.316Z,4.28
2022-08-03T12:11:13.855Z,4.13
2022-08-03T12:16:20.657Z,4.30
2022-08-03T12:21:24.819Z,3.78
2022-08-03T12:26:27.300Z,3.80
2022-08-03T12:31:29.424Z,4.25
2022-08-03T12:36:33.779Z,3.90
2022-08-03T12:41:38.133Z,4.43
2022-08-03T12:46:46.915Z,4.05
2022-08-03T12:51:52.258Z,4.07
2022-08-03T12:57:04.284Z,3.55
2022-08-03T13:02:18.264Z,3.60
2022-08-03T13:07:22.588Z,3.17
2022-08-03T13:12:29.932Z,3.67
2022-08-03T13:17:32.205Z,3.00
2022-08-03T13:22:34.791Z,3.50
2022-08-03T13:28:04.149Z,3.55
2022-08-03T13:33:00.634Z,2.92
2022-08-03T13:38:02.682Z,3.05
2022-08-03T13:43:04.691Z,3.17
2022-08-03T13:53:08.572Z,2.53
2022-08-03T13:58:12.529Z,2.13
2022-08-03T14:03:15.091Z,2.50
2022-08-03T14:08:17.333Z,2.63
2022-08-03T14:13:19.265Z,2.42
2022-08-03T14:18:29.291Z,2.55
2022-08-03T14:23:37.809Z,2.50
2022-08-03T14:28:39.841Z,2.80
2022-08-03T14:33:41.741Z,2.67
2022-08-03T14:38:43.743Z,2.67
2022-08-03T14:50:37.086Z,2.30
2022-08-03T14:54:28.818Z,2.70
2022-08-03T14:59:56.820Z,3.00
2022-08-03T15:04:53.105Z,2.88
2022-08-03T15:09:55.119Z,2.47
2022-08-03T15:20:03.860Z,2.50
2022-08-03T15:26:28.246Z,3.00
2022-08-03T15:30:36.195Z,2.60
2022-08-03T15:35:38.132Z,2.67
2022-08-03T15:40:40.145Z,2.53
2022-08-03T15:45:45.441Z,2.75
2022-08-03T15:50:47.471Z,2.22
2022-08-03T15:55:49.360Z,2.42
2022-08-03T16:05:53.330Z,2.45
2022-08-03T16:10:55.240Z,2.42
2022-08-03T16:15:59.789Z,2.53
2022-08-03T16:21:01.738Z,2.60
2022-08-03T16:31:11.143Z,3.10
2022-08-03T16:36:13.108Z,2.60
2022-08-03T16:41:15.130Z,3.15
2022-08-03T16:46:17.021Z,3.10
2022-08-03T16:56:25.470Z,3.00
2022-08-03T17:01:35.780Z,2.55
2022-08-03T17:06:45.074Z,2.63
2022-08-03T17:11:49.466Z,2.30
2022-08-03T17:16:54.336Z,1.88
2022-08-03T17:22:08.636Z,2.00
2022-08-03T17:28:42.222Z,1.67
2022-08-03T17:32:42.364Z,1.85
2022-08-03T17:37:57.656Z,1.85
2022-08-03T17:44:12.957Z,2.22
2022-08-03T17:48:26.333Z,1.80
2022-08-03T17:53:30.776Z,1.50
2022-08-03T17:58:55.181Z,1.75
2022-08-03T18:04:02.824Z,1.67
2022-08-03T18:10:04.287Z,1.92
2022-08-03T18:14:57.339Z,1.63
2022-08-03T18:20:09.897Z,1.65
2022-08-03T18:25:14.821Z,2.13
2022-08-03T18:30:17.938Z,2.03
2022-08-03T18:35:20.231Z,1.70
2022-08-03T18:40:28.360Z,1.73
2022-08-03T18:45:55.703Z,2.00
2022-08-03T18:51:00.273Z,2.00
2022-08-03T18:56:20.821Z,1.80
2022-08-03T19:02:00.743Z,2.30
2022-08-03T19:07:02.507Z,2.67
2022-08-03T19:12:27.250Z,1.83
2022-08-03T19:17:42.969Z,2.42
2022-08-03T19:22:54.561Z,2.40
2022-08-03T19:27:56.496Z,2.17
2022-08-03T19:33:01.163Z,2.50
2022-08-03T19:38:03.503Z,2.22
2022-08-03T19:43:10.246Z,2.63
2022-08-03T19:48:13.716Z,2.40
2022-08-03T19:53:15.857Z,2.60
2022-08-03T19:58:28.350Z,2.35
2022-08-03T20:03:42.990Z,2.72
2022-08-03T20:08:48.230Z,2.50
2022-08-03T20:13:54.679Z,2.35
2022-08-03T20:18:56.976Z,2.47
2022-08-03T20:24:24.255Z,2.35
2022-08-03T20:30:05.274Z,2.70
2022-08-03T20:35:00.750Z,2.90
2022-08-03T20:40:03.451Z,2.53
2022-08-03T20:45:13.949Z,2.40
2022-08-03T20:50:31.563Z,2.95
2022-08-03T20:55:48.138Z,3.03
2022-08-03T21:00:57.698Z,3.38
2022-08-03T21:06:01.646Z,3.35
2022-08-03T21:11:08.036Z,3.92
2022-08-03T21:16:15.020Z,3.65
2022-08-03T21:21:19.261Z,3.30
2022-08-03T21:26:23.631Z,3.78
2022-08-03T21:31:26.702Z,3.70
2022-08-03T21:36:32.885Z,3.25
2022-08-03T21:41:36.305Z,3.15
2022-08-03T21:46:41.012Z,2.75
2022-08-03T21:51:43.063Z,3.50
2022-08-03T21:56:47.585Z,3.03
2022-08-03T22:01:55.250Z,3.38
2022-08-03T22:07:00.840Z,3.30
2022-08-03T22:12:02.928Z,3.03
2022-08-03T22:17:07.272Z,3.08
2022-08-03T22:22:14.060Z,3.22
2022-08-03T22:27:32.383Z,3.42
2022-08-03T22:32:34.745Z,2.90
2022-08-03T22:37:37.394Z,3.45
2022-08-03T22:47:45.372Z,3.03
2022-08-03T22:52:47.506Z,3.38
2022-08-03T22:57:55.494Z,3.53
2022-08-03T23:02:59.340Z,2.72
2022-08-03T23:08:03.981Z,3.20
2022-08-03T23:13:06.567Z,2.90
2022-08-03T23:18:09.495Z,3.33
2022-08-03T23:23:11.556Z,2.85
2022-08-03T23:28:18.484Z,2.97
2022-08-03T23:33:21.329Z,3.13
2022-08-03T23:38:24.873Z,2.80
2022-08-03T23:43:44.969Z,2.92
2022-08-03T23:48:50.355Z,2.55
2022-08-03T23:54:01.479Z,2.60
2022-08-03T23:59:42.725Z,2.65
